createdAt,value
2022-10-09T00:01:09.526Z,13.00
2022-10-09T00:03:38.071Z,13.00
2022-10-09T00:06:06.182Z,13.00
2022-10-09T00:08:34.757Z,13.00
2022-10-09T00:11:05.993Z,13.00
2022-10-09T00:13:32.733Z,12.90
2022-10-09T00:16:07.327Z,12.90
2022-10-09T00:18:34.448Z,12.90
2022-10-09T00:21:01.294Z,12.90
2022-10-09T00:23:27.992Z,12.90
2022-10-09T00:25:59.815Z,12.90
2022-10-09T00:28:28.584Z,12.80
2022-10-09T00:30:55.790Z,12.80
2022-10-09T00:33:22.709Z,12.80
2022-10-09T00:35:49.443Z,12.80
2022-10-09T00:38:16.426Z,12.70
2022-10-09T00:40:43.709Z,12.70
2022-10-09T00:43:50.740Z,12.70
2022-10-09T00:46:41.941Z,12.70
2022-10-09T00:49:25.502Z,12.70
2022-10-09T00:51:53.078Z,12.60
2022-10-09T00:54:22.800Z,12.60
2022-10-09T00:56:50.446Z,12.60
2022-10-09T00:59:18.156Z,12.60
2022-10-09T01:01:44.901Z,12.50
2022-10-09T01:04:11.855Z,12.50
2022-10-09T01:06:56.502Z,12.50
2022-10-09T01:09:51.839Z,12.50
2022-10-09T01:12:28.346Z,12.50
2022-10-09T01:15:10.305Z,12.50
2022-10-09T01:17:46.937Z,12.40
2022-10-09T01:20:42.110Z,12.40
2022-10-09T01:23:14.220Z,12.40
2022-10-09T01:25:58.002Z,12.40
2022-10-09T01:28:29.918Z,12.40
2022-10-09T01:31:04.123Z,12.40
2022-10-09T01:33:32.311Z,12.30
2022-10-09T01:36:00.611Z,12.30
2022-10-09T01:38:29.392Z,12.30
2022-10-09T01:40:57.223Z,12.30
2022-10-09T01:43:23.850Z,12.30
2022-10-09T01:45:50.488Z,12.30
2022-10-09T01:48:23.077Z,12.30
2022-10-09T01:50:57.861Z,12.30
2022-10-09T01:53:25.921Z,12.20
2022-10-09T01:56:03.871Z,12.20
2022-10-09T01:58:35.462Z,12.20
2022-10-09T02:01:26.957Z,12.20
2022-10-09T02:03:56.076Z,12.20
2022-10-09T02:06:23.583Z,12.20
2022-10-09T02:08:52.320Z,12.20
2022-10-09T02:11:19.102Z,12.20
2022-10-09T02:13:48.059Z,12.10
2022-10-09T02:16:22.303Z,12.10
2022-10-09T02:18:57.275Z,12.10
2022-10-09T02:21:29.136Z,12.10
2022-10-09T02:23:57.787Z,12.10
2022-10-09T02:26:25.409Z,12.10
2022-10-09T02:28:52.307Z,12.10
2022-10-09T02:31:25.581Z,12.00
2022-10-09T02:33:57.210Z,12.00
2022-10-09T02:36:24.566Z,12.00
2022-10-09T02:38:51.392Z,12.00
2022-10-09T02:41:18.402Z,12.00
2022-10-09T02:43:44.991Z,12.00
2022-10-09T02:46:11.750Z,12.00
2022-10-09T02:48:38.440Z,12.00
2022-10-09T02:51:05.174Z,12.00
2022-10-09T02:53:31.786Z,11.90
2022-10-09T02:55:58.529Z,11.90
2022-10-09T02:58:25.234Z,11.90
2022-10-09T03:00:53.761Z,11.90
2022-10-09T03:03:20.773Z,11.90
2022-10-09T03:05:47.859Z,11.90
2022-10-09T03:08:14.819Z,11.90
2022-10-09T03:10:41.631Z,11.90
2022-10-09T03:13:09.102Z,11.90
2022-10-09T03:15:37.060Z,11.90
2022-10-09T03:18:04.260Z,11.90
2022-10-09T03:20:30.893Z,11.90
2022-10-09T03:22:57.887Z,11.90
2022-10-09T03:25:25.071Z,11.90
2022-10-09T03:27:51.789Z,11.90
2022-10-09T03:30:18.423Z,11.90
2022-10-09T03:32:45.076Z,11.80
2022-10-09T03:35:11.733Z,11.80
2022-10-09T03:37:38.361Z,11.80
2022-10-09T03:40:05.608Z,11.80
2022-10-09T03:42:32.278Z,11.80
2022-10-09T03:45:03.013Z,11.80
2022-10-09T03:47:30.200Z,11.80
2022-10-09T03:49:56.993Z,11.70
2022-10-09T03:52:23.764Z,11.70
2022-10-09T03:54:50.448Z,11.70
2022-10-09T03:57:17.104Z,11.70
2022-10-09T03:59:43.723Z,11.70
2022-10-09T04:02:10.353Z,11.70
2022-10-09T04:04:36.986Z,11.70
2022-10-09T04:07:03.624Z,11.70
2022-10-09T04:09:30.262Z,11.60
2022-10-09T04:11:56.875Z,11.60
2022-10-09T04:14:23.519Z,11.60
2022-10-09T04:16:50.131Z,11.60
2022-10-09T04:19:16.807Z,11.60
2022-10-09T04:21:43.434Z,11.60
2022-10-09T04:24:10.139Z,11.60
2022-10-09T04:26:36.740Z,11.60
2022-10-09T04:29:03.478Z,11.60
2022-10-09T04:31:30.233Z,11.60
2022-10-09T04:33:56.951Z,11.50
2022-10-09T04:36:23.937Z,11.50
2022-10-09T04:38:52.445Z,11.50
2022-10-09T04:41:19.157Z,11.50
2022-10-09T04:43:45.924Z,11.50
2022-10-09T04:46:14.434Z,11.50
2022-10-09T04:48:43.784Z,11.40
2022-10-09T04:51:10.990Z,11.40
2022-10-09T04:53:38.503Z,11.40
2022-10-09T04:56:17.300Z,11.40
2022-10-09T04:58:44.653Z,11.30
2022-10-09T05:01:18.434Z,11.30
2022-10-09T05:03:45.406Z,11.30
2022-10-09T05:06:13.220Z,11.30
2022-10-09T05:08:40.406Z,11.30
2022-10-09T05:11:09.400Z,11.30
2022-10-09T05:13:39.622Z,11.20
2022-10-09T05:16:12.773Z,11.20
2022-10-09T05:18:44.249Z,11.20
2022-10-09T05:21:11.043Z,11.20
2022-10-09T05:23:37.689Z,11.20
2022-10-09T05:26:06.796Z,11.20
2022-10-09T05:28:34.592Z,11.10
2022-10-09T05:31:03.956Z,11.10
2022-10-09T05:33:31.190Z,11.10
2022-10-09T05:36:00.341Z,11.10
2022-10-09T05:38:28.111Z,11.10
2022-10-09T05:41:00.139Z,11.10
2022-10-09T05:43:38.121Z,11.10
2022-10-09T05:46:12.169Z,11.00
2022-10-09T05:48:40.915Z,11.00
2022-10-09T05:51:19.813Z,11.00
2022-10-09T05:53:47.454Z,11.00
2022-10-09T05:56:19.859Z,11.00
2022-10-09T05:58:52.324Z,11.00
2022-10-09T06:01:20.116Z,11.00
2022-10-09T06:03:52.161Z,10.90
2022-10-09T06:06:20.438Z,10.90
2022-10-09T06:08:47.453Z,10.90
2022-10-09T06:11:22.774Z,10.90
2022-10-09T06:13:49.852Z,10.90
2022-10-09T06:16:17.924Z,10.90
2022-10-09T06:18:49.224Z,10.90
2022-10-09T06:21:16.311Z,10.90
2022-10-09T06:23:43.053Z,10.90
2022-10-09T06:26:12.241Z,10.90
2022-10-09T06:28:39.965Z,10.90
2022-10-09T06:31:09.156Z,10.90
2022-10-09T06:33:37.556Z,10.90
2022-10-09T06:36:10.700Z,10.90
2022-10-09T06:38:38.233Z,11.00
2022-10-09T06:41:10.110Z,11.00
2022-10-09T06:43:37.401Z,11.00
2022-10-09T06:46:07.253Z,11.00
2022-10-09T06:48:35.290Z,11.10
2022-10-09T06:51:06.164Z,11.10
2022-10-09T06:53:41.240Z,11.10
2022-10-09T06:56:08.646Z,11.20
2022-10-09T06:58:35.794Z,11.30
2022-10-09T07:03:46.168Z,11.60
2022-10-09T07:06:19.002Z,11.80
2022-10-09T07:08:51.353Z,12.00
2022-10-09T07:11:30.478Z,12.20
2022-10-09T07:13:59.601Z,12.50
2022-10-09T07:16:31.500Z,12.80
2022-10-09T07:19:00.045Z,13.10
2022-10-09T07:21:26.987Z,13.30
2022-10-09T07:23:56.518Z,13.60
2022-10-09T07:26:26.100Z,13.80
2022-10-09T07:28:53.350Z,14.00
2022-10-09T07:31:20.448Z,14.20
2022-10-09T07:33:48.524Z,14.30
2022-10-09T07:36:15.371Z,14.40
2022-10-09T07:38:42.542Z,14.40
2022-10-09T07:41:11.561Z,14.50
2022-10-09T07:43:40.155Z,14.60
2022-10-09T07:46:11.022Z,14.70
2022-10-09T07:48:38.377Z,14.80
2022-10-09T07:51:15.071Z,15.00
2022-10-09T07:53:41.883Z,15.20
2022-10-09T07:56:16.119Z,15.50
2022-10-09T07:58:43.915Z,15.70
2022-10-09T08:01:10.614Z,16.10
2022-10-09T08:03:38.451Z,16.30
2022-10-09T08:06:05.586Z,16.50
2022-10-09T08:08:32.439Z,16.90
2022-10-09T08:10:59.156Z,17.10
2022-10-09T08:13:26.096Z,17.40
2022-10-09T08:15:52.793Z,17.70
2022-10-09T08:18:19.434Z,17.90
2022-10-09T08:20:59.554Z,18.10
2022-10-09T08:23:26.685Z,18.40
2022-10-09T08:25:53.399Z,18.60
2022-10-09T08:28:20.395Z,18.90
2022-10-09T08:30:47.112Z,19.10
2022-10-09T08:33:13.851Z,19.40
2022-10-09T08:35:40.515Z,19.80
2022-10-09T08:38:07.182Z,20.10
2022-10-09T08:40:43.087Z,20.40
2022-10-09T08:43:15.530Z,20.70
2022-10-09T08:45:43.614Z,21.10
2022-10-09T08:48:20.189Z,21.40
2022-10-09T08:50:50.472Z,21.70
2022-10-09T08:53:28.966Z,22.00
2022-10-09T08:55:57.843Z,22.30
2022-10-09T08:58:36.330Z,22.50
2022-10-09T09:01:29.961Z,22.70
2022-10-09T09:04:18.374Z,22.90
2022-10-09T09:06:55.647Z,23.10
2022-10-09T09:09:31.830Z,23.30
2022-10-09T09:12:27.112Z,23.40
2022-10-09T09:15:17.295Z,23.60
2022-10-09T09:17:43.920Z,23.70
2022-10-09T09:20:30.822Z,23.90
2022-10-09T09:23:01.092Z,24.00
2022-10-09T09:25:41.102Z,24.20
2022-10-09T09:28:26.329Z,24.30
2022-10-09T09:31:06.620Z,24.50
2022-10-09T09:33:44.397Z,24.70
2022-10-09T09:36:14.397Z,24.90
2022-10-09T09:39:02.681Z,25.10
2022-10-09T09:41:28.986Z,25.30
2022-10-09T09:43:55.670Z,25.60
2022-10-09T09:46:27.123Z,25.70
2022-10-09T09:48:54.296Z,26.00
2022-10-09T09:51:31.989Z,26.20
2022-10-09T09:54:04.041Z,26.40
2022-10-09T09:57:06.762Z,26.60
2022-10-09T09:59:35.740Z,26.70
2022-10-09T10:02:11.214Z,26.90
2022-10-09T10:04:43.133Z,27.00
2022-10-09T10:07:09.937Z,27.20
2022-10-09T10:09:36.574Z,27.30
2022-10-09T10:12:05.835Z,27.40
2022-10-09T10:14:33.141Z,27.40
2022-10-09T10:17:01.243Z,27.50
2022-10-09T10:19:30.562Z,27.50
2022-10-09T10:22:21.314Z,27.40
2022-10-09T10:24:50.055Z,27.30
2022-10-09T10:27:28.417Z,27.20
2022-10-09T10:30:01.919Z,27.00
2022-10-09T10:32:38.107Z,26.90
2022-10-09T10:35:17.105Z,26.60
2022-10-09T10:38:00.766Z,26.40
2022-10-09T10:40:36.397Z,26.10
2022-10-09T10:43:38.154Z,25.90
2022-10-09T10:46:32.250Z,25.70
2022-10-09T10:49:00.266Z,25.50
2022-10-09T10:51:41.894Z,25.20
2022-10-09T10:54:23.637Z,25.00
2022-10-09T10:57:01.670Z,24.80
2022-10-09T10:59:58.176Z,24.60
2022-10-09T11:02:46.335Z,24.50
2022-10-09T11:05:27.583Z,24.40
2022-10-09T11:08:09.051Z,24.20
2022-10-09T11:10:41.477Z,24.10
2022-10-09T11:13:24.177Z,24.00
2022-10-09T11:16:04.488Z,23.80
2022-10-09T11:19:02.376Z,23.70
2022-10-09T11:21:44.356Z,23.60
2022-10-09T11:24:32.489Z,23.50
2022-10-09T11:27:11.081Z,23.40
2022-10-09T11:29:41.699Z,23.40
2022-10-09T11:32:21.607Z,23.30
2022-10-09T11:35:13.093Z,23.20
2022-10-09T11:37:43.472Z,23.20
2022-10-09T11:40:26.658Z,23.10
2022-10-09T11:43:14.431Z,23.00
2022-10-09T11:45:51.097Z,22.90
2022-10-09T11:48:43.520Z,22.90
2022-10-09T11:51:31.531Z,22.80
2022-10-09T11:53:59.127Z,22.70
2022-10-09T11:56:28.816Z,22.50
2022-10-09T11:58:58.543Z,22.40
2022-10-09T12:01:33.113Z,22.20
2022-10-09T12:04:50.041Z,22.10
2022-10-09T12:07:35.939Z,22.00
2022-10-09T12:10:07.255Z,21.90
2022-10-09T12:12:34.942Z,21.80
2022-10-09T12:15:30.802Z,21.80
2022-10-09T12:17:57.465Z,21.70
2022-10-09T12:20:25.791Z,21.70
2022-10-09T12:23:25.242Z,21.60
2022-10-09T12:25:49.453Z,21.60
2022-10-09T12:28:45.586Z,21.60
2022-10-09T12:31:30.871Z,21.50
2022-10-09T12:34:18.472Z,21.50
2022-10-09T12:36:45.121Z,21.40
2022-10-09T12:39:20.579Z,21.40
2022-10-09T12:41:50.648Z,21.30
2022-10-09T12:44:28.784Z,21.20
2022-10-09T12:46:59.756Z,21.20
2022-10-09T12:49:26.350Z,21.10
2022-10-09T12:51:56.358Z,21.10
2022-10-09T12:54:25.112Z,21.10
2022-10-09T12:56:56.825Z,21.00
2022-10-09T12:59:26.044Z,21.00
2022-10-09T13:01:57.758Z,21.00
2022-10-09T13:04:32.904Z,20.90
2022-10-09T13:07:02.665Z,20.90
2022-10-09T13:09:36.890Z,20.80
2022-10-09T13:12:13.678Z,20.80
2022-10-09T13:14:45.597Z,20.80
2022-10-09T13:20:16.663Z,20.70
2022-10-09T13:22:58.081Z,20.60
2022-10-09T13:25:34.020Z,20.60
2022-10-09T13:28:01.900Z,20.60
2022-10-09T13:30:28.586Z,20.50
2022-10-09T13:32:55.517Z,20.50
2022-10-09T13:35:22.192Z,20.40
2022-10-09T13:37:49.146Z,20.40
2022-10-09T13:40:20.375Z,20.40
2022-10-09T13:42:53.077Z,20.40
2022-10-09T13:45:19.784Z,20.40
2022-10-09T13:47:46.707Z,20.30
2022-10-09T13:50:14.742Z,20.30
2022-10-09T13:52:41.375Z,20.30
2022-10-09T13:55:09.028Z,20.30
2022-10-09T13:57:35.666Z,20.20
2022-10-09T14:00:02.889Z,20.20
2022-10-09T14:02:38.934Z,20.20
2022-10-09T14:05:06.089Z,20.20
2022-10-09T14:07:32.691Z,20.20
2022-10-09T14:09:59.367Z,20.20
2022-10-09T14:12:26.101Z,20.20
2022-10-09T14:14:53.859Z,20.10
2022-10-09T14:17:20.525Z,20.00
2022-10-09T14:19:47.111Z,20.00
2022-10-09T14:22:14.659Z,20.00
2022-10-09T14:24:41.279Z,20.00
2022-10-09T14:27:07.961Z,19.90
2022-10-09T14:29:34.613Z,19.90
2022-10-09T14:32:01.276Z,19.90
2022-10-09T14:34:28.038Z,19.90
2022-10-09T14:36:54.841Z,19.90
2022-10-09T14:39:21.516Z,19.90
2022-10-09T14:41:48.200Z,19.90
2022-10-09T14:44:14.862Z,19.90
2022-10-09T14:46:41.500Z,19.80
2022-10-09T14:49:08.626Z,19.80
2022-10-09T14:51:37.393Z,19.80
2022-10-09T14:54:05.465Z,19.80
2022-10-09T14:56:32.259Z,19.80
2022-10-09T14:59:02.340Z,19.70
2022-10-09T15:01:29.678Z,19.70
2022-10-09T15:03:56.892Z,19.70
2022-10-09T15:06:24.125Z,19.60
2022-10-09T15:08:54.116Z,19.60
2022-10-09T15:11:20.743Z,19.60
2022-10-09T15:13:47.353Z,19.50
2022-10-09T15:16:16.056Z,19.50
2022-10-09T15:18:43.630Z,19.50
2022-10-09T15:21:18.504Z,19.50
2022-10-09T15:23:46.463Z,19.50
2022-10-09T15:26:14.234Z,19.50
2022-10-09T15:28:43.378Z,19.40
2022-10-09T15:31:17.219Z,19.40
2022-10-09T15:33:43.828Z,19.40
2022-10-09T15:36:10.518Z,19.40
2022-10-09T15:38:37.166Z,19.40
2022-10-09T15:41:03.781Z,19.40
2022-10-09T15:43:30.514Z,19.30
2022-10-09T15:46:03.650Z,19.40
2022-10-09T15:48:31.183Z,19.30
2022-10-09T15:50:57.855Z,19.30
2022-10-09T15:53:25.010Z,19.30
2022-10-09T15:55:52.908Z,19.30
2022-10-09T15:58:20.322Z,19.30
2022-10-09T16:00:48.927Z,19.30
2022-10-09T16:03:17.807Z,19.20
2022-10-09T16:05:48.704Z,19.20
2022-10-09T16:08:16.627Z,19.20
2022-10-09T16:10:49.369Z,19.20
2022-10-09T16:13:16.575Z,19.10
2022-10-09T16:15:44.418Z,19.10
2022-10-09T16:18:11.689Z,19.00
2022-10-09T16:20:40.271Z,19.00
2022-10-09T16:23:08.480Z,19.00
2022-10-09T16:25:36.257Z,19.00
2022-10-09T16:28:03.684Z,18.90
2022-10-09T16:30:30.550Z,18.90
2022-10-09T16:32:57.213Z,18.90
2022-10-09T16:35:24.270Z,18.80
2022-10-09T16:37:53.935Z,18.80
2022-10-09T16:40:25.370Z,18.80
2022-10-09T16:43:02.718Z,18.70
2022-10-09T16:45:29.420Z,18.70
2022-10-09T16:47:59.680Z,18.60
2022-10-09T16:50:26.574Z,18.60
2022-10-09T16:52:53.489Z,18.50
2022-10-09T16:55:20.173Z,18.50
2022-10-09T16:57:46.851Z,18.50
2022-10-09T17:00:18.134Z,18.40
2022-10-09T17:02:45.745Z,18.30
2022-10-09T17:05:13.310Z,18.30
2022-10-09T17:07:39.932Z,18.20
2022-10-09T17:10:07.049Z,18.20
2022-10-09T17:12:33.639Z,18.10
2022-10-09T17:15:00.318Z,18.10
2022-10-09T17:17:26.957Z,18.00
2022-10-09T17:19:53.667Z,18.00
2022-10-09T17:22:20.319Z,17.90
2022-10-09T17:24:47.070Z,17.90
2022-10-09T17:27:13.744Z,17.80
2022-10-09T17:29:40.352Z,17.70
2022-10-09T17:32:09.161Z,17.70
2022-10-09T17:34:35.869Z,17.60
2022-10-09T17:37:02.537Z,17.60
2022-10-09T17:39:31.757Z,17.50
2022-10-09T17:41:58.448Z,17.40
2022-10-09T17:44:27.112Z,17.40
2022-10-09T17:46:53.973Z,17.30
2022-10-09T17:49:20.655Z,17.30
2022-10-09T17:51:48.127Z,17.20
2022-10-09T17:54:17.123Z,17.10
2022-10-09T17:56:44.328Z,17.10
2022-10-09T17:59:11.366Z,17.00
2022-10-09T18:01:38.585Z,17.00
2022-10-09T18:04:05.469Z,16.90
2022-10-09T18:06:34.117Z,16.90
2022-10-09T18:09:01.962Z,16.80
2022-10-09T18:11:29.917Z,16.80
2022-10-09T18:13:56.695Z,16.70
2022-10-09T18:16:35.772Z,16.70
2022-10-09T18:19:11.167Z,16.60
2022-10-09T18:21:40.170Z,16.60
2022-10-09T18:24:07.043Z,16.50
2022-10-09T18:26:34.171Z,16.50
2022-10-09T18:29:01.798Z,16.50
2022-10-09T18:31:28.898Z,16.40
2022-10-09T18:33:57.620Z,16.40
2022-10-09T18:36:30.923Z,16.30
2022-10-09T18:39:04.534Z,16.30
2022-10-09T18:41:31.563Z,16.20
2022-10-09T18:44:01.666Z,16.20
2022-10-09T18:46:34.011Z,16.10
2022-10-09T18:49:02.528Z,16.10
2022-10-09T18:51:30.917Z,16.00
2022-10-09T18:54:01.471Z,16.00
2022-10-09T18:56:32.281Z,16.00
2022-10-09T18:59:00.672Z,16.00
2022-10-09T19:01:27.383Z,16.00
2022-10-09T19:03:54.091Z,15.90
2022-10-09T19:06:20.885Z,15.90
2022-10-09T19:08:47.520Z,15.90
2022-10-09T19:11:15.530Z,15.90
2022-10-09T19:13:43.316Z,15.80
2022-10-09T19:16:10.942Z,15.80
2022-10-09T19:18:38.040Z,15.80
2022-10-09T19:21:05.554Z,15.80
2022-10-09T19:23:32.247Z,15.80
2022-10-09T19:25:59.769Z,15.70
2022-10-09T19:28:36.938Z,15.70
2022-10-09T19:31:08.309Z,15.70
2022-10-09T19:33:38.161Z,15.70
2022-10-09T19:36:06.470Z,15.60
2022-10-09T19:38:33.395Z,15.60
2022-10-09T19:41:05.690Z,15.60
2022-10-09T19:43:33.199Z,15.60
2022-10-09T19:46:11.966Z,15.60
2022-10-09T19:48:38.563Z,15.60
2022-10-09T19:51:13.592Z,15.50
2022-10-09T19:53:42.218Z,15.50
2022-10-09T19:56:18.664Z,15.50
2022-10-09T19:58:47.141Z,15.50
2022-10-09T20:01:16.098Z,15.50
2022-10-09T20:03:43.135Z,15.50
2022-10-09T20:06:10.793Z,15.50
2022-10-09T20:08:39.091Z,15.50
2022-10-09T20:11:07.319Z,15.50
2022-10-09T20:13:36.162Z,15.40
2022-10-09T20:16:05.306Z,15.40
2022-10-09T20:18:32.272Z,15.40
2022-10-09T20:20:59.032Z,15.40
2022-10-09T20:23:26.108Z,15.40
2022-10-09T20:26:07.929Z,15.30
2022-10-09T20:28:35.930Z,15.40
2022-10-09T20:31:06.426Z,15.40
2022-10-09T20:33:34.094Z,15.30
2022-10-09T20:36:00.721Z,15.30
2022-10-09T20:38:27.719Z,15.30
2022-10-09T20:40:54.551Z,15.30
2022-10-09T20:43:21.180Z,15.30
2022-10-09T20:45:47.810Z,15.30
2022-10-09T20:48:14.572Z,15.30
2022-10-09T20:50:42.026Z,15.20
2022-10-09T20:53:12.280Z,15.20
2022-10-09T20:55:38.945Z,15.20
2022-10-09T20:58:05.594Z,15.10
2022-10-09T21:00:32.197Z,15.10
2022-10-09T21:02:59.010Z,15.10
2022-10-09T21:05:25.669Z,15.10
2022-10-09T21:07:52.290Z,15.00
2022-10-09T21:10:18.919Z,15.00
2022-10-09T21:12:45.543Z,15.00
2022-10-09T21:15:12.196Z,14.90
2022-10-09T21:17:38.800Z,14.90
2022-10-09T21:20:05.776Z,14.80
2022-10-09T21:22:32.406Z,14.80
2022-10-09T21:24:59.090Z,14.70
2022-10-09T21:27:25.683Z,14.70
2022-10-09T21:29:52.325Z,14.70
2022-10-09T21:32:18.962Z,14.70
2022-10-09T21:34:45.923Z,14.60
2022-10-09T21:37:21.278Z,14.60
2022-10-09T21:39:48.659Z,14.50
2022-10-09T21:42:15.262Z,14.50
2022-10-09T21:44:41.893Z,14.50
2022-10-09T21:47:16.192Z,14.50
2022-10-09T21:49:42.837Z,14.40
2022-10-09T21:52:10.629Z,14.40
2022-10-09T21:54:37.259Z,14.40
2022-10-09T21:57:03.934Z,14.30
2022-10-09T21:59:30.592Z,14.30
2022-10-09T22:01:57.197Z,14.30
2022-10-09T22:04:23.951Z,14.30
2022-10-09T22:06:50.533Z,14.30
2022-10-09T22:09:17.215Z,14.20
2022-10-09T22:11:44.848Z,14.20
2022-10-09T22:14:11.614Z,14.20
2022-10-09T22:16:38.270Z,14.20
2022-10-09T22:19:04.890Z,14.20
2022-10-09T22:21:31.891Z,14.20
2022-10-09T22:24:00.101Z,14.20
2022-10-09T22:26:26.949Z,14.10
2022-10-09T22:28:53.587Z,14.10
2022-10-09T22:31:22.565Z,14.10
2022-10-09T22:33:53.819Z,14.10
2022-10-09T22:36:22.002Z,14.10
2022-10-09T22:38:48.627Z,14.10
2022-10-09T22:41:20.854Z,14.00
2022-10-09T22:43:49.468Z,14.00
2022-10-09T22:46:19.185Z,14.00
2022-10-09T22:48:46.338Z,14.00
2022-10-09T22:51:15.157Z,13.90
2022-10-09T22:53:43.090Z,13.90
2022-10-09T22:56:19.078Z,13.80
2022-10-09T22:58:47.425Z,13.80
2022-10-09T23:01:30.312Z,13.80
2022-10-09T23:03:58.604Z,13.80
2022-10-09T23:06:25.331Z,13.70
2022-10-09T23:08:52.300Z,13.70
2022-10-09T23:11:20.245Z,13.60
2022-10-09T23:13:47.695Z,13.60
2022-10-09T23:16:15.076Z,13.60
2022-10-09T23:18:42.387Z,13.50
2022-10-09T23:21:12.273Z,13.50
2022-10-09T23:23:39.405Z,13.50
2022-10-09T23:26:08.012Z,13.50
2022-10-09T23:28:35.438Z,13.40
2022-10-09T23:31:20.736Z,13.40
2022-10-09T23:33:47.858Z,13.40
2022-10-09T23:36:17.816Z,13.40
2022-10-09T23:38:45.082Z,13.30
2022-10-09T23:41:17.278Z,13.40
2022-10-09T23:43:45.187Z,13.30
2022-10-09T23:46:17.989Z,13.30
2022-10-09T23:48:45.236Z,13.30
2022-10-09T23:51:13.937Z,13.30
2022-10-09T23:53:41.570Z,13.30
2022-10-09T23:56:25.075Z,13.30
2022-10-09T23:58:52.520Z,13.30
